Catàleg de serveis del Meteocat
Campanya meteocatpedra

Dades de l'estació automàtica Port de Barcelona - Bocana Sud

?
?
Resum diari 21:00 TU
Dades diàries de l'estació meteorològica
Ratxa màxima del vent (10 m) 68.0 km/h - 45º 10:24 TU

El tram horari està expressat en Temps Universal (TU). Cal sumar una hora en horari d'hivern i dues en horari d'estiu per passar a l'hora oficial.

Port de Barcelona - Bocana Sud

Metadades estació meteorol´gica
Municipi El Prat de Llobregat
Comarca Baix Llobregat
Altitud 3 m
Data alta 08.04.2015
Estat actual Operativa
Dades de període
Període
TU
VVM (10 m)
km/h
DVM (10 m)
graus
VVX (10 m)
km/h
00:00 - 00:30 29.9 39 39.2
00:30 - 01:00 29.5 41 40.0
01:00 - 01:30 25.6 45 34.9
01:30 - 02:00 26.6 36 37.8
02:00 - 02:30 28.8 38 36.7
02:30 - 03:00 29.2 35 37.1
03:00 - 03:30 25.6 33 34.6
03:30 - 04:00 16.9 15 25.9
04:00 - 04:30 15.5 16 21.6
04:30 - 05:00 11.9 22 18.0
05:00 - 05:30 12.2 38 18.0
05:30 - 06:00 14.8 35 26.3
06:00 - 06:30 16.2 26 27.7
06:30 - 07:00 17.3 45 25.6
07:00 - 07:30 15.1 37 25.9
07:30 - 08:00 13.7 352 26.6
08:00 - 08:30 15.8 38 24.1
08:30 - 09:00 19.4 33 27.7
09:00 - 09:30 23.8 46 43.9
09:30 - 10:00 29.2 47 39.2
10:00 - 10:30 39.6 49 68.0
10:30 - 11:00 41.4 44 60.8
11:00 - 11:30 31.7 40 42.8
11:30 - 12:00 23.0 30 36.7
12:00 - 12:30 24.8 60 42.1
12:30 - 13:00 23.0 34 36.0
13:00 - 13:30 27.4 35 37.4
13:30 - 14:00 27.4 44 38.2
14:00 - 14:30 31.0 44 42.5
14:30 - 15:00 29.9 43 40.0
15:00 - 15:30 31.0 42 41.4
15:30 - 16:00 29.9 40 40.0
16:00 - 16:30 29.5 48 37.4
16:30 - 17:00 29.5 54 41.4
17:00 - 17:30 32.8 59 43.6
17:30 - 18:00 33.1 61 44.6
18:00 - 18:30 32.4 54 42.8
18:30 - 19:00 31.3 50 43.9
19:00 - 19:30 28.4 42 38.5
19:30 - 20:00 24.8 45 34.2
20:00 - 20:30 21.6 42 29.2
20:30 - 21:00 18.7 40 26.3
21:00 - 21:30 14.8 39 21.6
21:30 - 22:00 (s/d) (s/d) (s/d)

Les dades en taronja només han passat un control de qualitat automàtic. Resta pendent la seva validació definitiva.